Etusivu
METAR-TAF:

METAR-TAF

Lentoasemat :

Nižni Novgorod, Venäjä

Nižni Novgorodin lentoasema

Leveyspiiri: 56-19-48N, Pituuspiiri: 044-00E, korkeus merenpinnasta: 78 m

Tämänhetkinen sää

Tämä raportti tehtiin 43 minuuttia sitten, kello 21.00 UTC
tyyntä
Lämpötila -11°C
Kosteus 85%
Ilmanpaine 1022 hPa
Näkyvyys: 5000 m
Hajonneita pilviä 2600 ft:n korkeudessa
utua

METAR: UWGG 222100Z 00000MPS 5000 BR BKN026 M11/M13 Q1022 R36L/450237 NOSIG RMK QFE760

Aika: 00:43 (21:43 UTC)

Sääennuste

Tämä raportti tehtiin 1 tunti ja 53 minuuttia sitten, kello 19.50 UTC
Ennuste voimassa 22. päivästä klo 21 UTC - 23. päivään klo 21 UTC
Tuuli 6 kn lännestä
Näkyvyys: 4000 m
Hajonneita pilviä 1100 ft:n korkeudessa
heikkoa lumisadetta, utua

TAF: UWGG 221950Z 2221/2321 27003MPS 4000 -SN BR BKN011 TXM08/2310Z TNM15/2302Z

Säähavainnot ja -ennusteet yli 4000 lentoasemalta (METAR- ja TAF-raportit).

Käytössä olevat sääasemat on merkitty karttaan keltaisilla ja punaisilla pisteillä.

Aseta hiiri pisteen päälle nähdäksesi sääaseman nimen.

Klikkaa sitten nähdäksesi säähavainnot ja -ennusteet.

Kartan vaihtaminen: klikkaa mustalla rastilla varustettuja vihreitä pisteitä, niin voit zoomata sisään; viivalla varustettua vihreää pistettä, niin voit zoomata ulos tai vihreitä nuolia, niin pääset viereisille kartoille.


METAR-TAF: